Time;durP1;ratioP1;P1;durP2;ratioP2;P2;SDS_P1;SDS_P2;PMS_P1;PMS_P2;Temp;Humidity;BMP_temperature;BMP_pressure;BME280_temperature;BME280_humidity;BME280_pressure;Samples;Min_cycle;Max_cycle;Signal;HPM_P1;HPM_P2
2023/10/05 00:02:10;;;;;;;9.10;5.70;;;12.50;99.90;;;;;;5037335;28;20540;-68
2023/10/05 00:04:41;;;;;;;7.77;4.70;;;12.50;99.90;;;;;;5041527;28;20438;-69
2023/10/05 00:07:12;;;;;;;6.57;4.67;;;12.40;99.90;;;;;;5030717;28;20438;-69
2023/10/05 00:09:40;;;;;;;13.00;5.43;;;12.40;99.90;;;;;;5030239;28;20438;-69
2023/10/05 00:12:08;;;;;;;8.57;4.50;;;12.40;99.90;;;;;;5029920;28;20529;-69
2023/10/05 00:14:37;;;;;;;9.03;5.53;;;12.40;99.90;;;;;;5043657;28;20442;-69
2023/10/05 00:17:08;;;;;;;7.57;5.33;;;12.30;99.90;;;;;;5035599;28;20433;-68
2023/10/05 00:19:36;;;;;;;9.13;5.90;;;12.30;99.90;;;;;;5036102;28;20462;-68
2023/10/05 00:22:01;;;;;;;9.10;5.30;;;12.30;99.90;;;;;;5034184;28;20529;-68
2023/10/05 00:24:34;;;;;;;7.80;4.83;;;12.30;99.90;;;;;;5047400;28;20508;-69
2023/10/05 00:27:13;;;;;;;8.63;4.77;;;12.30;99.90;;;;;;5029341;28;20199;-69
2023/10/05 00:32:09;;;;;;;10.63;5.17;;;12.20;99.90;;;;;;5051923;28;20468;-69
2023/10/05 00:34:35;;;;;;;8.47;4.60;;;12.20;99.90;;;;;;5020110;28;20458;-69
2023/10/05 00:37:01;;;;;;;10.67;4.80;;;12.20;99.90;;;;;;5060898;22;20563;-72
2023/10/05 00:39:29;;;;;;;9.40;4.40;;;12.20;99.90;;;;;;5062298;28;20441;-72
2023/10/05 00:44:31;;;;;;;7.80;5.20;;;12.30;99.90;;;;;;5066100;28;20847;-73
2023/10/05 00:47:00;;;;;;;7.73;4.37;;;12.30;99.90;;;;;;5076460;28;20520;-72
2023/10/05 00:49:37;;;;;;;10.33;4.50;;;12.20;99.90;;;;;;5089833;28;20512;-72
2023/10/05 00:52:15;;;;;;;11.30;5.20;;;12.30;99.90;;;;;;5074856;28;20846;-72
2023/10/05 00:54:54;;;;;;;6.40;3.97;;;12.30;99.90;;;;;;5089810;28;20959;-72
2023/10/05 00:57:22;;;;;;;7.67;4.97;;;12.20;99.90;;;;;;5082470;28;20525;-72
2023/10/05 01:00:10;;;;;;;7.93;4.90;;;12.20;99.90;;;;;;5087631;28;20431;-71
2023/10/05 01:02:44;;;;;;;9.50;5.37;;;12.20;99.90;;;;;;5077067;28;20422;-71
2023/10/05 01:05:15;;;;;;;8.60;5.10;;;12.30;99.90;;;;;;5088497;28;20427;-72
2023/10/05 01:12:43;;;;;;;8.30;4.13;;;12.40;99.90;;;;;;5079536;28;20468;-73
2023/10/05 01:15:10;;;;;;;6.73;4.40;;;12.40;99.90;;;;;;5080792;28;20424;-71
2023/10/05 01:17:36;;;;;;;9.40;5.13;;;12.40;99.90;;;;;;5079976;28;20447;-72
2023/10/05 01:20:12;;;;;;;7.40;4.83;;;12.40;99.90;;;;;;5085529;28;20470;-72
2023/10/05 01:22:39;;;;;;;5.53;4.00;;;12.40;99.90;;;;;;5085309;28;20423;-73
2023/10/05 01:25:08;;;;;;;7.53;5.27;;;12.40;99.90;;;;;;5079393;28;20425;-73
2023/10/05 01:27:38;;;;;;;6.30;3.97;;;12.40;99.90;;;;;;5079900;28;20804;-72
2023/10/05 01:30:06;;;;;;;7.93;4.60;;;12.30;99.90;;;;;;5088731;28;20426;-73
2023/10/05 01:32:33;;;;;;;9.03;5.43;;;12.30;99.90;;;;;;5089425;28;20467;-73
2023/10/05 01:34:59;;;;;;;10.73;5.10;;;12.30;99.90;;;;;;5091671;28;20795;-73
2023/10/05 01:37:30;;;;;;;7.97;4.60;;;12.30;99.90;;;;;;5092330;28;20444;-73
2023/10/05 01:39:59;;;;;;;6.03;4.37;;;12.30;99.90;;;;;;5087515;28;20478;-73
2023/10/05 01:42:24;;;;;;;5.20;4.70;;;12.20;99.90;;;;;;5088393;28;20427;-72
2023/10/05 01:44:50;;;;;;;6.07;4.80;;;12.20;99.90;;;;;;5088025;28;20497;-73
2023/10/05 01:47:17;;;;;;;10.50;4.70;;;12.30;99.90;;;;;;5089968;28;20458;-72
2023/10/05 01:49:45;;;;;;;9.00;4.00;;;12.20;99.90;;;;;;5088532;28;20204;-72
2023/10/05 01:52:16;;;;;;;8.63;4.53;;;12.20;99.90;;;;;;5088287;28;20542;-73
2023/10/05 01:54:43;;;;;;;7.70;4.60;;;12.20;99.90;;;;;;5088227;28;20435;-73
2023/10/05 01:57:09;;;;;;;7.83;4.80;;;12.30;99.90;;;;;;5091091;28;20452;-71
2023/10/05 01:59:35;;;;;;;7.73;4.07;;;12.20;99.90;;;;;;5092369;28;20459;-72
2023/10/05 02:02:01;;;;;;;6.27;3.97;;;12.20;99.90;;;;;;5094233;28;20435;-71
2023/10/05 02:04:29;;;;;;;9.07;4.63;;;12.20;99.90;;;;;;5086519;28;20431;-72
2023/10/05 02:06:55;;;;;;;7.23;4.40;;;12.20;99.90;;;;;;5091489;28;20693;-72
2023/10/05 02:09:21;;;;;;;6.83;4.20;;;12.10;99.90;;;;;;5094185;28;20430;-72
2023/10/05 02:11:47;;;;;;;6.00;4.13;;;12.20;99.90;;;;;;5091698;28;20664;-72
2023/10/05 02:14:16;;;;;;;10.07;4.10;;;12.20;99.90;;;;;;5088519;28;20428;-72
2023/10/05 02:16:50;;;;;;;12.93;4.87;;;12.10;99.90;;;;;;5091157;28;20435;-74
2023/10/05 02:19:16;;;;;;;7.90;4.93;;;12.20;99.90;;;;;;5090844;28;20768;-71
2023/10/05 02:21:43;;;;;;;13.47;5.13;;;12.20;99.90;;;;;;5092595;28;20407;-72
2023/10/05 02:24:17;;;;;;;8.13;5.27;;;12.20;99.90;;;;;;5090971;28;20465;-71
2023/10/05 02:27:09;;;;;;;11.20;4.47;;;12.20;99.90;;;;;;5092920;28;20477;-72
2023/10/05 02:29:34;;;;;;;5.90;4.10;;;12.10;99.90;;;;;;5091227;28;20991;-72
2023/10/05 02:34:39;;;;;;;6.80;3.90;;;12.20;99.90;;;;;;5090650;28;20181;-71
2023/10/05 02:37:05;;;;;;;11.80;4.33;;;12.20;99.90;;;;;;5092729;28;20208;-73
2023/10/05 02:39:37;;;;;;;5.50;3.60;;;12.20;99.90;;;;;;5093108;28;20838;-72
2023/10/05 02:42:11;;;;;;;8.23;5.63;;;12.30;99.90;;;;;;5093284;28;20426;-73
2023/10/05 02:44:38;;;;;;;6.60;5.17;;;12.30;99.90;;;;;;5091179;28;20430;-73
2023/10/05 02:47:14;;;;;;;7.90;4.50;;;12.30;99.90;;;;;;5090237;28;20446;-73
2023/10/05 02:49:44;;;;;;;8.97;4.93;;;12.30;99.90;;;;;;5091521;28;20500;-73
2023/10/05 02:52:13;;;;;;;5.63;4.30;;;12.30;99.90;;;;;;5091511;28;20459;-73
2023/10/05 02:54:40;;;;;;;7.63;4.20;;;12.30;99.90;;;;;;5092236;28;20627;-72
2023/10/05 02:57:16;;;;;;;7.07;3.90;;;12.30;99.90;;;;;;5092218;28;20467;-72
2023/10/05 02:59:45;;;;;;;9.63;4.13;;;12.40;99.90;;;;;;5088575;28;20518;-72
2023/10/05 03:02:14;;;;;;;8.63;4.17;;;12.40;99.90;;;;;;5070594;28;20428;-72
2023/10/05 03:07:35;;;;;;;6.17;4.27;;;12.40;99.90;;;;;;5071978;28;20436;-73
2023/10/05 03:10:01;;;;;;;13.23;4.30;;;12.40;99.90;;;;;;5089810;28;20514;-71
2023/10/05 03:12:27;;;;;;;7.80;4.40;;;12.50;99.90;;;;;;5092091;28;20204;-71
2023/10/05 03:14:54;;;;;;;11.10;4.17;;;12.40;99.90;;;;;;5087807;28;20585;-72
2023/10/05 03:17:21;;;;;;;5.93;4.23;;;12.50;99.90;;;;;;5092733;28;20485;-72
2023/10/05 03:19:48;;;;;;;7.00;4.73;;;12.50;99.90;;;;;;5090961;28;20428;-73
2023/10/05 03:22:14;;;;;;;6.83;3.53;;;12.50;99.90;;;;;;5088899;28;20437;-73
2023/10/05 03:24:47;;;;;;;7.30;4.83;;;12.50;99.90;;;;;;5092343;28;20514;-73
2023/10/05 03:27:16;;;;;;;8.77;4.27;;;12.60;99.90;;;;;;5092175;28;20933;-73
2023/10/05 03:29:46;;;;;;;5.83;3.77;;;12.60;99.90;;;;;;5088354;28;20825;-72
2023/10/05 03:34:37;;;;;;;5.23;3.70;;;12.70;99.90;;;;;;5090594;28;20419;-72
2023/10/05 03:37:08;;;;;;;9.97;5.37;;;12.80;99.90;;;;;;5086934;28;20790;-72
2023/10/05 03:39:39;;;;;;;8.47;4.37;;;12.80;99.90;;;;;;5088928;28;20588;-73
2023/10/05 03:42:05;;;;;;;7.30;3.53;;;12.80;99.90;;;;;;5091850;28;20404;-73
2023/10/05 03:44:31;;;;;;;6.00;3.70;;;12.80;99.90;;;;;;5089698;28;20432;-73
2023/10/05 03:46:57;;;;;;;5.50;3.50;;;12.90;99.90;;;;;;5090468;28;20442;-72
2023/10/05 03:49:23;;;;;;;5.03;3.30;;;12.80;99.90;;;;;;5090132;28;20836;-72
2023/10/05 03:51:49;;;;;;;8.47;4.00;;;12.80;99.90;;;;;;5090587;28;20504;-73
2023/10/05 03:54:21;;;;;;;5.23;3.70;;;12.80;99.90;;;;;;5086793;28;20417;-72
2023/10/05 03:56:50;;;;;;;9.50;4.10;;;12.80;99.90;;;;;;5089966;28;20435;-72
2023/10/05 03:59:17;;;;;;;6.30;3.80;;;12.80;99.90;;;;;;5091025;28;20446;-72
2023/10/05 04:01:48;;;;;;;7.07;4.03;;;12.70;99.90;;;;;;5091914;28;20419;-73
2023/10/05 04:04:16;;;;;;;7.93;3.83;;;12.70;99.90;;;;;;5090984;28;20436;-72
2023/10/05 04:06:42;;;;;;;6.53;3.33;;;12.70;99.90;;;;;;5092275;28;20514;-72
2023/10/05 04:09:15;;;;;;;10.67;4.60;;;12.60;99.90;;;;;;5086576;28;20902;-72
2023/10/05 04:11:43;;;;;;;4.87;3.53;;;12.70;99.90;;;;;;5087005;28;20416;-72
2023/10/05 04:14:09;;;;;;;8.93;4.80;;;12.70;99.90;;;;;;5069318;28;20431;-72
2023/10/05 04:16:34;;;;;;;6.23;4.37;;;12.60;99.90;;;;;;5087670;28;20791;-72
2023/10/05 04:19:04;;;;;;;5.63;4.10;;;12.60;99.90;;;;;;5087431;28;20436;-72
2023/10/05 04:21:33;;;;;;;8.90;4.70;;;12.60;99.90;;;;;;5087722;28;20181;-73
2023/10/05 04:23:59;;;;;;;9.70;4.63;;;12.60;99.90;;;;;;5087115;28;20439;-73
2023/10/05 04:26:48;;;;;;;8.67;4.10;;;12.60;99.90;;;;;;5090988;28;20432;-72
2023/10/05 04:29:14;;;;;;;4.70;3.60;;;12.70;99.90;;;;;;5086457;28;20434;-72
2023/10/05 04:31:41;;;;;;;7.83;4.20;;;12.70;99.90;;;;;;5089112;28;20412;-72
2023/10/05 04:34:12;;;;;;;7.93;3.03;;;12.60;99.90;;;;;;5087396;28;20545;-73
2023/10/05 04:36:41;;;;;;;6.53;4.00;;;12.60;99.90;;;;;;5090056;28;20455;-73
2023/10/05 04:39:07;;;;;;;6.13;4.23;;;12.60;99.90;;;;;;5089617;28;20423;-72
2023/10/05 04:41:38;;;;;;;4.63;3.00;;;12.60;99.90;;;;;;5086869;28;20437;-72
2023/10/05 04:44:07;;;;;;;6.37;4.00;;;12.60;99.90;;;;;;5083944;28;20427;-72
2023/10/05 04:46:33;;;;;;;6.57;3.40;;;12.60;99.90;;;;;;5090515;28;20546;-72
2023/10/05 04:49:07;;;;;;;5.50;4.03;;;12.50;99.90;;;;;;5091076;28;20645;-72
2023/10/05 04:51:41;;;;;;;7.33;4.70;;;12.50;99.90;;;;;;5086871;28;20173;-73
2023/10/05 04:54:11;;;;;;;7.00;3.87;;;12.50;99.90;;;;;;5088319;28;20426;-73
2023/10/05 04:56:43;;;;;;;7.77;4.33;;;12.60;99.90;;;;;;5088681;28;20436;-72
2023/10/05 05:01:56;;;;;;;8.63;4.07;;;12.60;99.90;;;;;;5084810;28;20800;-72
2023/10/05 05:07:09;;;;;;;6.20;3.90;;;12.60;99.90;;;;;;5089375;28;20776;-73
2023/10/05 05:09:38;;;;;;;9.60;3.33;;;12.60;99.90;;;;;;5088433;28;20430;-71
2023/10/05 05:12:09;;;;;;;7.30;3.70;;;12.70;99.90;;;;;;5087961;28;20901;-72
2023/10/05 05:14:46;;;;;;;5.90;4.03;;;12.70;99.90;;;;;;5086090;28;20427;-72
2023/10/05 05:17:14;;;;;;;9.53;3.80;;;12.70;99.90;;;;;;5087536;28;20438;-73
2023/10/05 05:19:40;;;;;;;5.93;3.80;;;12.60;99.90;;;;;;5088454;28;20424;-72
2023/10/05 05:22:06;;;;;;;8.10;3.90;;;12.70;99.90;;;;;;5089317;28;20426;-71
2023/10/05 05:24:35;;;;;;;5.70;3.30;;;12.70;99.90;;;;;;5090222;28;20897;-72
2023/10/05 05:27:11;;;;;;;6.03;3.67;;;12.70;99.90;;;;;;5088050;28;20442;-72
2023/10/05 05:29:38;;;;;;;11.20;4.10;;;12.70;99.90;;;;;;5087737;28;20485;-72
2023/10/05 05:32:10;;;;;;;12.30;4.87;;;12.80;99.90;;;;;;5088427;28;20520;-72
2023/10/05 05:34:42;;;;;;;8.43;3.90;;;12.80;99.90;;;;;;5087634;28;20419;-72
2023/10/05 05:37:11;;;;;;;5.57;3.33;;;12.80;99.90;;;;;;5086837;28;20463;-72
2023/10/05 05:39:39;;;;;;;7.43;4.10;;;12.80;99.90;;;;;;5089481;28;20555;-72
2023/10/05 05:42:14;;;;;;;7.37;4.13;;;12.80;99.90;;;;;;5089718;28;20418;-72
2023/10/05 05:44:43;;;;;;;8.10;4.13;;;13.00;99.90;;;;;;5088388;28;20521;-72
2023/10/05 05:47:10;;;;;;;8.30;3.60;;;12.90;99.90;;;;;;5085760;28;20539;-72
2023/10/05 05:49:40;;;;;;;6.17;4.37;;;12.90;99.90;;;;;;5087842;28;20892;-74
2023/10/05 05:52:08;;;;;;;14.00;3.93;;;13.00;99.90;;;;;;5087041;28;21049;-72
2023/10/05 05:54:37;;;;;;;11.47;4.40;;;13.00;99.90;;;;;;5088744;28;20408;-72
2023/10/05 05:57:06;;;;;;;5.20;3.73;;;13.10;99.90;;;;;;5086464;28;20966;-72
2023/10/05 05:59:34;;;;;;;10.23;4.17;;;13.10;99.90;;;;;;5088825;28;20439;-72
2023/10/05 06:02:00;;;;;;;9.57;3.70;;;13.20;99.90;;;;;;5089256;28;21067;-72
2023/10/05 06:04:28;;;;;;;9.63;4.80;;;13.20;99.90;;;;;;5088436;28;20830;-72
2023/10/05 06:06:53;;;;;;;8.63;4.07;;;13.30;99.90;;;;;;5090870;28;20888;-72
2023/10/05 06:09:22;;;;;;;8.43;5.13;;;13.30;99.90;;;;;;5082388;28;20523;-69
2023/10/05 06:11:50;;;;;;;10.03;3.73;;;13.30;99.90;;;;;;5083187;28;20181;-72
2023/10/05 06:14:18;;;;;;;11.67;4.60;;;13.40;99.90;;;;;;5079983;28;20431;-71
2023/10/05 06:16:44;;;;;;;16.00;5.10;;;13.40;99.90;;;;;;5082930;28;20444;-74
2023/10/05 06:19:10;;;;;;;7.33;3.67;;;13.50;99.90;;;;;;5083294;28;21041;-72
2023/10/05 06:21:36;;;;;;;9.83;4.27;;;13.50;99.90;;;;;;5079741;28;20418;-72
2023/10/05 06:24:05;;;;;;;13.10;4.13;;;13.50;99.90;;;;;;5091154;28;20181;-72
2023/10/05 06:26:31;;;;;;;10.97;4.70;;;13.60;99.90;;;;;;5071967;28;20683;-74
2023/10/05 06:28:57;;;;;;;11.20;4.23;;;13.60;99.90;;;;;;5082631;28;20423;-72
2023/10/05 06:31:23;;;;;;;6.20;3.77;;;13.70;99.90;;;;;;5083206;28;20261;-72
2023/10/05 06:33:49;;;;;;;6.73;4.33;;;13.70;99.90;;;;;;5087679;28;20675;-73
2023/10/05 06:36:14;;;;;;;9.30;4.63;;;13.70;99.90;;;;;;5082421;28;20440;-72
2023/10/05 06:38:40;;;;;;;6.03;3.90;;;13.80;99.90;;;;;;5091285;28;20235;-72
2023/10/05 06:41:06;;;;;;;7.40;3.90;;;13.80;99.90;;;;;;5088513;28;20261;-73
2023/10/05 06:43:35;;;;;;;5.57;4.00;;;13.80;99.90;;;;;;5091356;28;20435;-73
2023/10/05 06:46:20;;;;;;;6.40;4.37;;;13.90;99.90;;;;;;5088780;28;20440;-73
2023/10/05 06:48:49;;;;;;;7.10;4.13;;;13.90;99.90;;;;;;5080531;28;20440;-73
2023/10/05 06:51:22;;;;;;;9.10;3.73;;;14.00;99.90;;;;;;5076264;28;20423;-72
2023/10/05 06:53:48;;;;;;;7.10;3.77;;;14.00;99.90;;;;;;5094343;28;20462;-73
2023/10/05 06:56:13;;;;;;;10.60;4.30;;;14.00;99.90;;;;;;5092987;28;20452;-73
2023/10/05 06:58:41;;;;;;;9.40;4.20;;;14.00;99.90;;;;;;5080053;28;20605;-73
2023/10/05 07:01:06;;;;;;;9.73;4.20;;;14.10;99.90;;;;;;5083378;28;20181;-73
2023/10/05 07:03:32;;;;;;;10.07;4.10;;;14.20;99.90;;;;;;5092865;28;20991;-73
2023/10/05 07:05:59;;;;;;;7.00;3.90;;;14.30;99.90;;;;;;5093532;28;20197;-73
2023/10/05 07:08:25;;;;;;;11.70;4.03;;;14.30;99.90;;;;;;5086317;28;20461;-73
2023/10/05 07:10:50;;;;;;;6.57;4.53;;;14.30;99.90;;;;;;5080309;28;20490;-72
2023/10/05 07:13:19;;;;;;;8.10;4.10;;;14.30;99.90;;;;;;5091025;28;20213;-75
2023/10/05 07:15:45;;;;;;;5.40;3.00;;;14.30;99.90;;;;;;5079415;28;20226;-72
2023/10/05 07:18:10;;;;;;;11.60;3.97;;;14.40;99.90;;;;;;5085174;28;20476;-73
2023/10/05 07:20:41;;;;;;;7.53;3.90;;;14.50;99.90;;;;;;5079027;28;20169;-72
2023/10/05 07:23:07;;;;;;;6.70;3.93;;;14.60;99.90;;;;;;5089076;28;20504;-73
2023/10/05 07:25:33;;;;;;;6.93;3.73;;;14.60;99.90;;;;;;5077230;28;20499;-74
2023/10/05 07:27:59;;;;;;;10.57;3.20;;;14.80;99.90;;;;;;5084101;28;20489;-72
2023/10/05 07:30:25;;;;;;;7.80;4.17;;;14.70;99.90;;;;;;5075941;28;20441;-73
2023/10/05 07:32:50;;;;;;;4.90;3.57;;;14.70;99.90;;;;;;5083672;28;20766;-74
2023/10/05 07:35:16;;;;;;;11.40;4.03;;;14.70;99.90;;;;;;5080329;28;20586;-73
2023/10/05 07:37:42;;;;;;;7.20;4.03;;;14.80;99.90;;;;;;5083674;28;20574;-72
2023/10/05 07:40:08;;;;;;;7.63;4.13;;;14.90;99.90;;;;;;5078659;28;20672;-72
2023/10/05 07:42:33;;;;;;;6.27;3.33;;;15.30;99.90;;;;;;5086376;28;20192;-73
2023/10/05 07:44:59;;;;;;;6.80;3.10;;;15.30;99.90;;;;;;5073974;28;20505;-77
2023/10/05 07:47:25;;;;;;;6.97;3.40;;;15.30;99.90;;;;;;5093340;28;20195;-75
2023/10/05 07:49:54;;;;;;;5.50;3.90;;;15.70;99.90;;;;;;5094566;28;20185;-75
2023/10/05 07:52:21;;;;;;;7.50;3.70;;;15.60;99.90;;;;;;5083345;28;20196;-75
2023/10/05 07:54:47;;;;;;;7.73;3.37;;;15.50;99.90;;;;;;5086907;28;20491;-75
2023/10/05 07:57:14;;;;;;;7.93;3.97;;;15.40;99.90;;;;;;5084482;28;21011;-73
2023/10/05 07:59:40;;;;;;;9.00;3.73;;;15.60;99.90;;;;;;5085513;28;20458;-73
2023/10/05 08:02:07;;;;;;;6.33;3.60;;;15.90;99.90;;;;;;5082633;28;20437;-74
2023/10/05 08:04:33;;;;;;;8.60;3.47;;;16.00;99.90;;;;;;5072697;28;20412;-73
2023/10/05 08:06:59;;;;;;;7.93;3.57;;;15.90;99.90;;;;;;5078456;28;20508;-73
2023/10/05 08:09:27;;;;;;;5.83;3.00;;;16.30;99.90;;;;;;5084672;28;20432;-73
2023/10/05 08:11:53;;;;;;;4.20;2.70;;;16.40;99.90;;;;;;5084023;28;20438;-73
2023/10/05 08:14:20;;;;;;;5.57;3.60;;;16.10;99.90;;;;;;5090853;28;20407;-72
2023/10/05 08:16:47;;;;;;;10.60;3.23;;;15.80;99.90;;;;;;5078601;28;21010;-72
2023/10/05 08:19:15;;;;;;;4.33;2.70;;;16.20;99.90;;;;;;5080951;28;20427;-73
2023/10/05 08:21:41;;;;;;;5.63;3.40;;;15.80;99.90;;;;;;5086112;28;20564;-73
2023/10/05 08:24:08;;;;;;;4.60;3.43;;;15.90;99.90;;;;;;5084690;28;20499;-72
2023/10/05 08:26:34;;;;;;;5.43;2.67;;;16.10;99.90;;;;;;5091542;28;20442;-73
2023/10/05 08:29:01;;;;;;;6.73;3.17;;;16.00;99.90;;;;;;5085312;28;20480;-74
2023/10/05 08:31:27;;;;;;;8.10;3.47;;;16.30;99.90;;;;;;5087478;28;20432;-73
2023/10/05 08:34:00;;;;;;;10.43;3.60;;;16.30;99.90;;;;;;5069517;28;20443;-74
2023/10/05 08:36:26;;;;;;;4.20;2.60;;;16.30;99.90;;;;;;5084004;28;20481;-73
2023/10/05 08:38:54;;;;;;;7.13;3.30;;;16.20;99.90;;;;;;5085265;28;20433;-72
2023/10/05 08:41:36;;;;;;;4.90;3.50;;;16.30;99.90;;;;;;5081113;28;20928;-72
2023/10/05 08:44:41;;;;;;;8.47;3.97;;;15.90;99.90;;;;;;5088134;28;20429;-72
2023/10/05 08:46:58;;;;;;;5.47;3.27;;;16.20;99.90;;;;;;5074102;28;20529;-72
2023/10/05 08:49:24;;;;;;;7.67;2.83;;;16.40;99.90;;;;;;5079435;28;20435;-72
2023/10/05 08:51:51;;;;;;;6.57;3.20;;;16.70;99.90;;;;;;5075643;28;20462;-72
2023/10/05 08:54:21;;;;;;;7.90;3.20;;;17.20;99.90;;;;;;5082471;28;20420;-73
2023/10/05 08:56:47;;;;;;;8.60;3.10;;;17.30;99.90;;;;;;5089378;28;20966;-73
2023/10/05 08:59:19;;;;;;;4.50;3.00;;;17.60;99.90;;;;;;5083100;28;20426;-73
2023/10/05 09:01:54;;;;;;;5.83;4.63;;;17.40;99.90;;;;;;5082608;28;20432;-74
2023/10/05 09:06:56;;;;;;;4.60;2.67;;;17.10;99.90;;;;;;5089036;28;20446;-75
2023/10/05 09:09:47;;;;;;;8.60;3.63;;;17.50;99.90;;;;;;5069535;28;20931;-72
2023/10/05 09:18:17;;;;;;;5.43;3.07;;;17.20;99.90;;;;;;5090269;28;20536;-73
2023/10/05 09:20:48;;;;;;;4.40;3.10;;;17.10;99.90;;;;;;5085134;28;20493;-72
2023/10/05 09:23:14;;;;;;;4.70;2.70;;;17.60;99.90;;;;;;5087271;28;20946;-72
2023/10/05 09:25:44;;;;;;;8.23;3.40;;;17.70;99.90;;;;;;5091219;28;20467;-73
2023/10/05 09:28:16;;;;;;;9.17;3.30;;;17.50;99.90;;;;;;5090404;28;20722;-73
2023/10/05 09:31:07;;;;;;;5.97;3.17;;;17.20;99.90;;;;;;5088654;28;20478;-73
2023/10/05 09:33:35;;;;;;;4.37;2.80;;;17.30;99.90;;;;;;5086184;28;20451;-73
2023/10/05 09:36:20;;;;;;;7.40;3.40;;;16.90;99.90;;;;;;5091022;28;20419;-72
2023/10/05 09:38:47;;;;;;;5.30;2.43;;;16.80;99.90;;;;;;5084595;28;20431;-73
2023/10/05 09:41:19;;;;;;;12.83;3.80;;;16.70;99.90;;;;;;5090508;28;20767;-73
2023/10/05 09:43:58;;;;;;;8.27;3.20;;;17.10;99.90;;;;;;5091440;28;20462;-72
2023/10/05 09:46:28;;;;;;;5.50;3.03;;;17.30;99.90;;;;;;5089654;28;20469;-72
2023/10/05 09:48:55;;;;;;;5.77;3.87;;;17.30;99.90;;;;;;5089172;28;20483;-73
2023/10/05 09:51:21;;;;;;;5.30;3.60;;;17.00;99.90;;;;;;5090396;28;20418;-73
2023/10/05 09:53:52;;;;;;;9.20;3.03;;;17.20;99.90;;;;;;5088151;28;20463;-72
2023/10/05 09:56:20;;;;;;;9.23;3.10;;;17.20;99.90;;;;;;5088416;28;20463;-72
2023/10/05 09:58:46;;;;;;;6.47;3.63;;;17.00;99.90;;;;;;5091312;28;20456;-72
2023/10/05 10:01:20;;;;;;;8.13;3.50;;;17.10;99.90;;;;;;5072969;28;20442;-72
2023/10/05 10:03:46;;;;;;;7.40;3.40;;;17.10;99.90;;;;;;5090073;28;20424;-72
2023/10/05 10:06:18;;;;;;;5.23;2.90;;;17.00;99.90;;;;;;5088037;28;20451;-73
2023/10/05 10:08:53;;;;;;;5.20;2.97;;;16.80;99.90;;;;;;5091680;28;20774;-72
2023/10/05 10:11:24;;;;;;;14.60;4.20;;;16.80;99.90;;;;;;5089930;28;20496;-73
2023/10/05 10:14:06;;;;;;;9.23;3.57;;;16.60;99.90;;;;;;5071515;28;20455;-72
2023/10/05 10:16:33;;;;;;;5.90;3.07;;;16.60;99.90;;;;;;5073262;28;20780;-72
2023/10/05 10:19:06;;;;;;;8.17;3.23;;;16.50;99.90;;;;;;5085570;28;20467;-72
2023/10/05 10:21:34;;;;;;;4.13;2.90;;;16.50;99.90;;;;;;5093366;28;20441;-73
2023/10/05 10:24:06;;;;;;;6.27;3.23;;;16.60;99.90;;;;;;5092370;28;20806;-73
2023/10/05 10:26:42;;;;;;;6.90;3.50;;;16.50;99.90;;;;;;5092673;28;20849;-72
2023/10/05 10:29:11;;;;;;;5.20;3.27;;;16.50;99.90;;;;;;5094848;28;20770;-73
2023/10/05 10:31:47;;;;;;;7.90;3.50;;;16.50;99.90;;;;;;5070770;28;20421;-73
2023/10/05 10:34:42;;;;;;;6.33;3.10;;;16.20;99.90;;;;;;5080286;28;20421;-74
2023/10/05 10:37:10;;;;;;;4.70;3.20;;;16.00;99.90;;;;;;5093921;28;20500;-72
2023/10/05 10:39:37;;;;;;;8.60;4.67;;;15.90;99.90;;;;;;5077735;28;20419;-72
2023/10/05 10:42:04;;;;;;;5.30;3.33;;;15.80;99.90;;;;;;5081223;28;20419;-72
2023/10/05 10:44:51;;;;;;;7.07;3.43;;;15.70;99.90;;;;;;5071881;28;20555;-73
2023/10/05 10:47:22;;;;;;;11.07;4.87;;;15.60;99.90;;;;;;5069116;28;20477;-72
2023/10/05 10:50:15;;;;;;;4.23;3.27;;;15.80;99.90;;;;;;5089563;28;20434;-72
2023/10/05 10:52:44;;;;;;;9.07;3.47;;;15.90;99.90;;;;;;5084834;28;20580;-72
2023/10/05 10:55:14;;;;;;;14.17;4.53;;;15.50;99.90;;;;;;5084298;28;20425;-73
2023/10/05 10:57:53;;;;;;;10.30;4.13;;;15.60;99.90;;;;;;5086888;28;20545;-74
2023/10/05 11:03:12;;;;;;;8.10;3.80;;;15.60;99.90;;;;;;5088692;28;20995;-71
2023/10/05 11:05:43;;;;;;;7.60;3.67;;;15.50;99.90;;;;;;5086749;28;20506;-73
2023/10/05 11:08:13;;;;;;;3.50;2.70;;;15.60;99.90;;;;;;5091737;28;20457;-73
2023/10/05 11:10:42;;;;;;;6.30;4.00;;;15.60;99.90;;;;;;5088509;28;20444;-74
2023/10/05 11:13:14;;;;;;;5.47;2.97;;;15.60;99.90;;;;;;5090376;28;20559;-72
2023/10/05 11:15:59;;;;;;;3.63;2.87;;;15.70;99.90;;;;;;5081072;28;20851;-72
2023/10/05 11:18:38;;;;;;;10.47;2.93;;;15.70;99.90;;;;;;5087904;28;20426;-72
2023/10/05 11:21:24;;;;;;;7.30;3.27;;;15.80;99.90;;;;;;5089472;28;20914;-72
2023/10/05 11:23:57;;;;;;;6.00;3.30;;;15.80;99.90;;;;;;5083740;28;20437;-75
2023/10/05 11:28:56;;;;;;;12.13;8.53;;;16.00;99.90;;;;;;5092587;28;20422;-71
2023/10/05 11:31:23;;;;;;;26.83;20.50;;;16.10;99.90;;;;;;5089586;28;20453;-72
2023/10/05 11:33:53;;;;;;;6.57;3.80;;;16.60;99.90;;;;;;5090816;28;20503;-74
2023/10/05 11:36:27;;;;;;;6.23;3.33;;;16.40;99.90;;;;;;5085700;28;20872;-72
2023/10/05 11:39:00;;;;;;;10.07;3.07;;;16.60;99.90;;;;;;5085588;28;20526;-70
2023/10/05 11:41:28;;;;;;;4.93;3.00;;;16.60;99.90;;;;;;5088512;28;20428;-74
2023/10/05 11:43:58;;;;;;;6.63;3.63;;;16.30;99.90;;;;;;5090619;28;20491;-73
2023/10/05 11:46:42;;;;;;;6.73;3.87;;;16.20;99.90;;;;;;5086421;28;20469;-72
2023/10/05 11:49:10;;;;;;;6.47;3.67;;;16.10;99.90;;;;;;5090146;28;20445;-74
2023/10/05 11:51:42;;;;;;;5.97;2.87;;;16.10;99.90;;;;;;5085756;28;20453;-73
2023/10/05 11:54:19;;;;;;;8.20;3.80;;;15.90;99.90;;;;;;5080618;28;20494;-74
2023/10/05 11:56:46;;;;;;;4.60;3.37;;;15.90;99.90;;;;;;5085295;28;20457;-72
2023/10/05 11:59:12;;;;;;;6.60;4.47;;;15.70;99.90;;;;;;5081294;28;20778;-72
2023/10/05 12:01:40;;;;;;;6.83;4.40;;;15.60;99.90;;;;;;5085488;28;20468;-73
2023/10/05 12:04:08;;;;;;;8.70;4.77;;;15.60;99.90;;;;;;5061945;28;20183;-72
2023/10/05 12:06:37;;;;;;;8.37;4.00;;;15.70;99.90;;;;;;5090802;28;20682;-73
2023/10/05 12:09:07;;;;;;;6.93;3.93;;;15.80;99.90;;;;;;5093394;28;20452;-73
2023/10/05 12:11:33;;;;;;;7.40;4.57;;;15.70;99.90;;;;;;5086720;28;20444;-73
2023/10/05 12:14:00;;;;;;;7.17;4.33;;;15.80;99.90;;;;;;5070431;28;20459;-73
2023/10/05 12:16:32;;;;;;;6.33;3.43;;;15.90;99.90;;;;;;5083154;28;20535;-72
2023/10/05 12:19:21;;;;;;;5.70;3.47;;;15.60;99.90;;;;;;5079739;28;20549;-72
2023/10/05 12:21:47;;;;;;;4.50;3.50;;;15.70;99.90;;;;;;5073142;28;20460;-72
2023/10/05 12:24:13;;;;;;;7.53;3.83;;;15.80;99.90;;;;;;5080278;28;20501;-72
2023/10/05 12:26:42;;;;;;;7.90;5.10;;;15.90;99.90;;;;;;5076527;28;20663;-72
2023/10/05 12:29:14;;;;;;;8.90;3.50;;;15.70;99.90;;;;;;5082706;28;20417;-72
2023/10/05 12:31:47;;;;;;;8.70;4.30;;;15.80;99.90;;;;;;5084902;28;20433;-72
2023/10/05 12:34:16;;;;;;;6.60;4.00;;;15.90;99.90;;;;;;5075504;28;20582;-72
2023/10/05 12:36:49;;;;;;;6.73;4.10;;;15.60;99.90;;;;;;5088960;28;20539;-72
2023/10/05 12:39:20;;;;;;;9.50;3.50;;;15.50;99.90;;;;;;5080089;28;20419;-72
2023/10/05 12:41:46;;;;;;;5.20;4.10;;;15.60;99.90;;;;;;5086690;28;20850;-73
2023/10/05 12:44:15;;;;;;;9.87;4.23;;;15.70;99.90;;;;;;5085212;28;20439;-71
2023/10/05 12:46:42;;;;;;;4.63;3.30;;;15.70;99.90;;;;;;5076949;28;20461;-72
2023/10/05 12:49:09;;;;;;;13.27;4.33;;;15.60;99.90;;;;;;5078467;28;20501;-73
2023/10/05 12:51:38;;;;;;;7.57;5.10;;;15.50;99.90;;;;;;5079389;28;20437;-72
2023/10/05 12:54:28;;;;;;;12.20;3.93;;;15.50;99.90;;;;;;5078586;28;20799;-72
2023/10/05 12:56:55;;;;;;;6.43;4.53;;;15.30;99.90;;;;;;5081262;28;20452;-73
2023/10/05 12:59:21;;;;;;;5.03;3.80;;;15.30;99.90;;;;;;5090031;28;20440;-72
2023/10/05 13:01:48;;;;;;;9.40;3.67;;;15.10;99.90;;;;;;5076476;28;20435;-71
2023/10/05 13:04:18;;;;;;;5.20;4.43;;;14.90;99.90;;;;;;5079520;28;20439;-72
2023/10/05 13:06:45;;;;;;;3.27;2.97;;;14.90;99.90;;;;;;5085978;28;20434;-71
2023/10/05 13:09:12;;;;;;;3.00;2.07;;;14.60;99.90;;;;;;5062114;28;20913;-71
2023/10/05 13:11:45;;;;;;;1.30;1.13;;;14.00;99.90;;;;;;5070535;28;20438;-71
2023/10/05 13:14:14;;;;;;;1.47;1.10;;;13.90;99.90;;;;;;5089915;28;20491;-71
2023/10/05 13:16:41;;;;;;;2.33;1.40;;;13.80;99.90;;;;;;5089166;28;20452;-72
2023/10/05 13:19:09;;;;;;;1.87;1.10;;;13.50;99.90;;;;;;5085565;28;20412;-72
2023/10/05 13:21:36;;;;;;;3.80;1.30;;;13.30;99.90;;;;;;5089842;28;20926;-72
2023/10/05 13:24:04;;;;;;;2.00;0.97;;;13.30;99.90;;;;;;5089452;28;20442;-72
2023/10/05 13:26:30;;;;;;;3.40;1.10;;;13.20;99.90;;;;;;5080807;28;20451;-72
2023/10/05 13:28:59;;;;;;;2.23;1.43;;;13.20;99.90;;;;;;5084233;28;20431;-72
2023/10/05 13:31:25;;;;;;;1.77;1.40;;;13.10;99.90;;;;;;5089284;28;20257;-71
2023/10/05 13:33:54;;;;;;;2.23;1.27;;;13.10;99.90;;;;;;5087185;28;20447;-71
2023/10/05 13:36:21;;;;;;;3.00;1.17;;;13.00;99.90;;;;;;5082717;28;20467;-73